sensor_id;sensor_type;location;lat;lon;timestamp;P1;durP1;ratioP1;P2;durP2;ratioP2
30169;SDS011;46426;51.368;5.254;2022-09-17T11:52:23;5.37;;;1.67;;
30169;SDS011;46426;51.368;5.254;2022-09-17T11:52:59;4.53;;;1.47;;
30169;SDS011;46426;51.368;5.254;2022-09-17T11:53:52;6.73;;;1.30;;
30169;SDS011;46426;51.368;5.254;2022-09-17T11:54:32;3.47;;;1.20;;
30169;SDS011;46426;51.368;5.254;2022-09-17T11:55:39;3.80;;;1.00;;
30169;SDS011;46426;51.368;5.254;2022-09-17T11:56:51;7.43;;;1.27;;
30169;SDS011;46426;51.368;5.254;2022-09-17T11:57:25;5.83;;;1.20;;
30169;SDS011;46426;51.368;5.254;2022-09-17T11:57:59;6.10;;;1.38;;
30169;SDS011;46426;51.368;5.254;2022-09-17T11:58:53;10.63;;;1.10;;
30169;SDS011;46426;51.368;5.254;2022-09-17T11:59:34;5.40;;;1.13;;
30169;SDS011;46426;51.368;5.254;2022-09-17T12:00:17;1.95;;;1.00;;
30169;SDS011;46426;51.368;5.254;2022-09-17T12:00:57;4.50;;;0.97;;
30169;SDS011;46426;51.368;5.254;2022-09-17T12:01:34;4.75;;;1.20;;
30169;SDS011;46426;51.368;5.254;2022-09-17T12:03:00;5.80;;;1.42;;
30169;SDS011;46426;51.368;5.254;2022-09-17T12:03:33;4.67;;;1.23;;
30169;SDS011;46426;51.368;5.254;2022-09-17T12:04:59;5.32;;;1.10;;
30169;SDS011;46426;51.368;5.254;2022-09-17T12:06:28;5.20;;;1.30;;
30169;SDS011;46426;51.368;5.254;2022-09-17T12:07:18;4.77;;;1.30;;
30169;SDS011;46426;51.368;5.254;2022-09-17T12:08:09;8.10;;;1.20;;
30169;SDS011;46426;51.368;5.254;2022-09-17T12:08:52;6.13;;;1.20;;
30169;SDS011;46426;51.368;5.254;2022-09-17T12:09:28;4.10;;;1.20;;
30169;SDS011;46426;51.368;5.254;2022-09-17T12:11:35;4.77;;;1.00;;
30169;SDS011;46426;51.368;5.254;2022-09-17T12:12:21;2.80;;;1.05;;
30169;SDS011;46426;51.368;5.254;2022-09-17T12:13:53;3.90;;;1.35;;
30169;SDS011;46426;51.368;5.254;2022-09-17T12:15:05;5.18;;;1.00;;
30169;SDS011;46426;51.368;5.254;2022-09-17T12:15:38;4.28;;;1.00;;
30169;SDS011;46426;51.368;5.254;2022-09-17T12:16:14;2.22;;;1.13;;
30169;SDS011;46426;51.368;5.254;2022-09-17T12:16:48;5.15;;;1.10;;
30169;SDS011;46426;51.368;5.254;2022-09-17T12:17:33;3.10;;;0.80;;
30169;SDS011;46426;51.368;5.254;2022-09-17T12:19:38;4.20;;;1.35;;
30169;SDS011;46426;51.368;5.254;2022-09-17T12:20:31;3.40;;;1.20;;
30169;SDS011;46426;51.368;5.254;2022-09-17T12:21:05;2.43;;;1.27;;
30169;SDS011;46426;51.368;5.254;2022-09-17T12:22:49;2.95;;;1.10;;
30169;SDS011;46426;51.368;5.254;2022-09-17T12:23:34;1.75;;;0.85;;
30169;SDS011;46426;51.368;5.254;2022-09-17T12:24:09;3.05;;;0.90;;
30169;SDS011;46426;51.368;5.254;2022-09-17T12:24:43;1.55;;;0.80;;
30169;SDS011;46426;51.368;5.254;2022-09-17T12:25:16;1.73;;;0.98;;
30169;SDS011;46426;51.368;5.254;2022-09-17T12:26:01;2.67;;;0.90;;
30169;SDS011;46426;51.368;5.254;2022-09-17T12:27:13;1.92;;;0.90;;
30169;SDS011;46426;51.368;5.254;2022-09-17T12:28:28;3.88;;;1.15;;
30169;SDS011;46426;51.368;5.254;2022-09-17T12:29:47;2.55;;;0.90;;
30169;SDS011;46426;51.368;5.254;2022-09-17T12:30:23;2.75;;;1.10;;
30169;SDS011;46426;51.368;5.254;2022-09-17T12:31:11;2.05;;;0.95;;
30169;SDS011;46426;51.368;5.254;2022-09-17T12:32:01;4.43;;;1.17;;
30169;SDS011;46426;51.368;5.254;2022-09-17T12:34:00;2.43;;;0.70;;
30169;SDS011;46426;51.368;5.254;2022-09-17T12:34:55;3.53;;;1.00;;
30169;SDS011;46426;51.368;5.254;2022-09-17T12:38:00;3.97;;;1.10;;
30169;SDS011;46426;51.368;5.254;2022-09-17T12:38:58;1.52;;;0.70;;
30169;SDS011;46426;51.368;5.254;2022-09-17T12:41:20;1.80;;;0.90;;
30169;SDS011;46426;51.368;5.254;2022-09-17T12:44:48;2.00;;;1.00;;
30169;SDS011;46426;51.368;5.254;2022-09-17T12:47:14;1.60;;;0.82;;
30169;SDS011;46426;51.368;5.254;2022-09-17T12:51:13;3.33;;;0.90;;
30169;SDS011;46426;51.368;5.254;2022-09-17T12:51:54;2.30;;;1.00;;
30169;SDS011;46426;51.368;5.254;2022-09-17T12:53:18;2.88;;;0.95;;
30169;SDS011;46426;51.368;5.254;2022-09-17T12:55:46;3.00;;;0.90;;
30169;SDS011;46426;51.368;5.254;2022-09-17T12:57:16;3.88;;;0.88;;
30169;SDS011;46426;51.368;5.254;2022-09-17T12:59:18;2.60;;;1.00;;
30169;SDS011;46426;51.368;5.254;2022-09-17T12:59:52;2.65;;;0.90;;
30169;SDS011;46426;51.368;5.254;2022-09-17T13:00:32;2.97;;;0.68;;
30169;SDS011;46426;51.368;5.254;2022-09-17T13:01:12;2.75;;;0.80;;
30169;SDS011;46426;51.368;5.254;2022-09-17T13:01:51;2.20;;;1.00;;
30169;SDS011;46426;51.368;5.254;2022-09-17T13:02:27;2.63;;;1.08;;
30169;SDS011;46426;51.368;5.254;2022-09-17T13:03:21;2.38;;;0.77;;
30169;SDS011;46426;51.368;5.254;2022-09-17T13:06:33;2.97;;;1.15;;
30169;SDS011;46426;51.368;5.254;2022-09-17T13:08:31;5.78;;;1.17;;
30169;SDS011;46426;51.368;5.254;2022-09-17T13:10:28;5.28;;;1.38;;
30169;SDS011;46426;51.368;5.254;2022-09-17T13:12:23;5.72;;;1.55;;
30169;SDS011;46426;51.368;5.254;2022-09-17T13:15:33;2.33;;;1.05;;
30169;SDS011;46426;51.368;5.254;2022-09-17T13:16:12;3.38;;;1.25;;
30169;SDS011;46426;51.368;5.254;2022-09-17T13:18:46;7.97;;;1.75;;
30169;SDS011;46426;51.368;5.254;2022-09-17T13:20:26;2.92;;;1.45;;
30169;SDS011;46426;51.368;5.254;2022-09-17T13:20:52;2.95;;;1.23;;
30169;SDS011;46426;51.368;5.254;2022-09-17T13:21:39;4.82;;;1.75;;
30169;SDS011;46426;51.368;5.254;2022-09-17T13:22:48;4.63;;;1.65;;
30169;SDS011;46426;51.368;5.254;2022-09-17T13:24:29;5.72;;;1.98;;
30169;SDS011;46426;51.368;5.254;2022-09-17T13:25:06;6.13;;;1.55;;
30169;SDS011;46426;51.368;5.254;2022-09-17T13:25:48;7.68;;;1.67;;
30169;SDS011;46426;51.368;5.254;2022-09-17T13:26:31;4.72;;;1.50;;
30169;SDS011;46426;51.368;5.254;2022-09-17T13:27:04;4.35;;;1.30;;
30169;SDS011;46426;51.368;5.254;2022-09-17T13:27:37;5.28;;;1.30;;
30169;SDS011;46426;51.368;5.254;2022-09-17T13:28:09;5.13;;;1.45;;
30169;SDS011;46426;51.368;5.254;2022-09-17T13:28:43;5.25;;;1.60;;
30169;SDS011;46426;51.368;5.254;2022-09-17T13:30:13;3.53;;;1.75;;
30169;SDS011;46426;51.368;5.254;2022-09-17T13:30:59;4.93;;;1.50;;
30169;SDS011;46426;51.368;5.254;2022-09-17T13:33:01;4.97;;;1.27;;
30169;SDS011;46426;51.368;5.254;2022-09-17T13:34:30;6.03;;;1.30;;
30169;SDS011;46426;51.368;5.254;2022-09-17T13:37:00;5.00;;;1.52;;
30169;SDS011;46426;51.368;5.254;2022-09-17T13:37:33;5.03;;;1.25;;
30169;SDS011;46426;51.368;5.254;2022-09-17T13:38:06;5.43;;;1.27;;
30169;SDS011;46426;51.368;5.254;2022-09-17T13:38:41;4.97;;;1.30;;
30169;SDS011;46426;51.368;5.254;2022-09-17T13:40:27;4.45;;;1.15;;
30169;SDS011;46426;51.368;5.254;2022-09-17T13:41:18;4.85;;;1.58;;
30169;SDS011;46426;51.368;5.254;2022-09-17T13:41:58;4.28;;;1.90;;
30169;SDS011;46426;51.368;5.254;2022-09-17T13:42:41;3.25;;;1.10;;
30169;SDS011;46426;51.368;5.254;2022-09-17T13:43:16;5.68;;;1.42;;
30169;SDS011;46426;51.368;5.254;2022-09-17T13:43:49;2.30;;;1.02;;
30169;SDS011;46426;51.368;5.254;2022-09-17T13:44:25;5.88;;;1.25;;
30169;SDS011;46426;51.368;5.254;2022-09-17T13:46:45;3.95;;;1.23;;
30169;SDS011;46426;51.368;5.254;2022-09-17T13:47:20;4.63;;;1.20;;
30169;SDS011;46426;51.368;5.254;2022-09-17T13:47:54;3.80;;;1.35;;
30169;SDS011;46426;51.368;5.254;2022-09-17T13:48:27;4.18;;;1.40;;
30169;SDS011;46426;51.368;5.254;2022-09-17T13:49:01;3.30;;;1.30;;
30169;SDS011;46426;51.368;5.254;2022-09-17T13:49:34;4.20;;;1.30;;
30169;SDS011;46426;51.368;5.254;2022-09-17T13:50:07;6.60;;;1.60;;
30169;SDS011;46426;51.368;5.254;2022-09-17T13:50:40;6.03;;;1.60;;
30169;SDS011;46426;51.368;5.254;2022-09-17T13:52:03;4.95;;;1.50;;
30169;SDS011;46426;51.368;5.254;2022-09-17T13:52:41;3.83;;;1.38;;
30169;SDS011;46426;51.368;5.254;2022-09-17T13:53:51;5.57;;;1.42;;
30169;SDS011;46426;51.368;5.254;2022-09-17T13:54:34;7.15;;;1.58;;
30169;SDS011;46426;51.368;5.254;2022-09-17T13:55:07;7.65;;;1.63;;
30169;SDS011;46426;51.368;5.254;2022-09-17T13:55:43;5.07;;;1.30;;
30169;SDS011;46426;51.368;5.254;2022-09-17T13:56:32;8.55;;;1.55;;
30169;SDS011;46426;51.368;5.254;2022-09-17T13:57:11;7.90;;;1.50;;
30169;SDS011;46426;51.368;5.254;2022-09-17T13:57:45;8.52;;;1.40;;
30169;SDS011;46426;51.368;5.254;2022-09-17T13:58:54;4.90;;;1.50;;
30169;SDS011;46426;51.368;5.254;2022-09-17T13:59:26;6.13;;;1.45;;
30169;SDS011;46426;51.368;5.254;2022-09-17T13:59:59;9.52;;;1.70;;
30169;SDS011;46426;51.368;5.254;2022-09-17T14:02:45;4.80;;;1.35;;
30169;SDS011;46426;51.368;5.254;2022-09-17T14:05:22;6.57;;;1.50;;
30169;SDS011;46426;51.368;5.254;2022-09-17T14:05:56;6.88;;;1.60;;
30169;SDS011;46426;51.368;5.254;2022-09-17T14:08:11;9.00;;;1.83;;
30169;SDS011;46426;51.368;5.254;2022-09-17T14:09:33;6.72;;;1.75;;
30169;SDS011;46426;51.368;5.254;2022-09-17T14:10:45;5.07;;;1.35;;
30169;SDS011;46426;51.368;5.254;2022-09-17T14:11:39;8.70;;;1.58;;
30169;SDS011;46426;51.368;5.254;2022-09-17T14:14:49;7.70;;;1.60;;
30169;SDS011;46426;51.368;5.254;2022-09-17T14:16:22;9.80;;;2.10;;
30169;SDS011;46426;51.368;5.254;2022-09-17T14:16:56;6.50;;;1.58;;
30169;SDS011;46426;51.368;5.254;2022-09-17T14:19:47;9.90;;;2.30;;
30169;SDS011;46426;51.368;5.254;2022-09-17T14:20:22;10.73;;;1.73;;
30169;SDS011;46426;51.368;5.254;2022-09-17T14:21:38;6.72;;;1.73;;
30169;SDS011;46426;51.368;5.254;2022-09-17T14:22:27;9.00;;;1.77;;
30169;SDS011;46426;51.368;5.254;2022-09-17T14:23:00;8.55;;;1.63;;
30169;SDS011;46426;51.368;5.254;2022-09-17T14:23:34;5.28;;;1.60;;
30169;SDS011;46426;51.368;5.254;2022-09-17T14:24:18;11.65;;;1.52;;
30169;SDS011;46426;51.368;5.254;2022-09-17T14:24:51;7.93;;;1.70;;
30169;SDS011;46426;51.368;5.254;2022-09-17T14:25:28;8.27;;;1.92;;
30169;SDS011;46426;51.368;5.254;2022-09-17T14:26:04;6.15;;;1.58;;
30169;SDS011;46426;51.368;5.254;2022-09-17T14:26:41;14.18;;;2.00;;
30169;SDS011;46426;51.368;5.254;2022-09-17T14:27:58;12.17;;;1.60;;
30169;SDS011;46426;51.368;5.254;2022-09-17T14:28:38;11.70;;;1.63;;
30169;SDS011;46426;51.368;5.254;2022-09-17T14:30:37;9.88;;;1.95;;
30169;SDS011;46426;51.368;5.254;2022-09-17T14:31:20;9.65;;;1.70;;
30169;SDS011;46426;51.368;5.254;2022-09-17T14:31:53;5.90;;;1.50;;
30169;SDS011;46426;51.368;5.254;2022-09-17T14:32:27;8.65;;;1.90;;
30169;SDS011;46426;51.368;5.254;2022-09-17T14:33:07;6.78;;;2.10;;
30169;SDS011;46426;51.368;5.254;2022-09-17T14:33:45;9.50;;;2.03;;
30169;SDS011;46426;51.368;5.254;2022-09-17T14:34:20;4.43;;;1.58;;
30169;SDS011;46426;51.368;5.254;2022-09-17T14:34:53;6.05;;;1.98;;
30169;SDS011;46426;51.368;5.254;2022-09-17T14:35:44;8.02;;;1.70;;
30169;SDS011;46426;51.368;5.254;2022-09-17T14:36:19;3.08;;;1.27;;
30169;SDS011;46426;51.368;5.254;2022-09-17T14:36:53;6.75;;;1.52;;
30169;SDS011;46426;51.368;5.254;2022-09-17T14:37:26;7.95;;;1.70;;
30169;SDS011;46426;51.368;5.254;2022-09-17T14:38:18;13.32;;;2.70;;
30169;SDS011;46426;51.368;5.254;2022-09-17T14:38:52;6.90;;;2.00;;
30169;SDS011;46426;51.368;5.254;2022-09-17T14:39:27;6.82;;;1.85;;
30169;SDS011;46426;51.368;5.254;2022-09-17T14:40:10;4.95;;;1.60;;
30169;SDS011;46426;51.368;5.254;2022-09-17T14:41:02;4.47;;;1.73;;
30169;SDS011;46426;51.368;5.254;2022-09-17T14:41:42;5.82;;;1.35;;
30169;SDS011;46426;51.368;5.254;2022-09-17T14:42:21;5.30;;;1.88;;
30169;SDS011;46426;51.368;5.254;2022-09-17T14:42:55;8.45;;;1.80;;
30169;SDS011;46426;51.368;5.254;2022-09-17T14:44:20;4.18;;;1.42;;
30169;SDS011;46426;51.368;5.254;2022-09-17T14:44:59;6.15;;;1.88;;
30169;SDS011;46426;51.368;5.254;2022-09-17T14:45:35;7.57;;;1.67;;
30169;SDS011;46426;51.368;5.254;2022-09-17T14:46:29;7.32;;;2.05;;
30169;SDS011;46426;51.368;5.254;2022-09-17T14:47:03;6.63;;;1.60;;
30169;SDS011;46426;51.368;5.254;2022-09-17T14:47:38;4.60;;;1.40;;
30169;SDS011;46426;51.368;5.254;2022-09-17T14:48:16;6.93;;;2.03;;
30169;SDS011;46426;51.368;5.254;2022-09-17T14:50:24;6.47;;;1.60;;
30169;SDS011;46426;51.368;5.254;2022-09-17T14:51:50;8.07;;;1.98;;
30169;SDS011;46426;51.368;5.254;2022-09-17T14:52:29;6.65;;;1.45;;
30169;SDS011;46426;51.368;5.254;2022-09-17T14:53:06;7.00;;;1.73;;
30169;SDS011;46426;51.368;5.254;2022-09-17T14:53:38;6.88;;;1.60;;
30169;SDS011;46426;51.368;5.254;2022-09-17T14:54:14;8.10;;;1.92;;
30169;SDS011;46426;51.368;5.254;2022-09-17T14:54:46;6.32;;;1.65;;
30169;SDS011;46426;51.368;5.254;2022-09-17T14:55:22;7.47;;;1.40;;
30169;SDS011;46426;51.368;5.254;2022-09-17T14:55:56;6.00;;;1.50;;
30169;SDS011;46426;51.368;5.254;2022-09-17T14:56:28;5.75;;;1.20;;
30169;SDS011;46426;51.368;5.254;2022-09-17T14:57:23;6.40;;;1.50;;
30169;SDS011;46426;51.368;5.254;2022-09-17T14:57:56;7.25;;;1.80;;
30169;SDS011;46426;51.368;5.254;2022-09-17T14:58:29;5.80;;;1.40;;
30169;SDS011;46426;51.368;5.254;2022-09-17T14:59:03;6.32;;;1.65;;
30169;SDS011;46426;51.368;5.254;2022-09-17T14:59:37;6.55;;;1.42;;
30169;SDS011;46426;51.368;5.254;2022-09-17T15:00:16;7.97;;;1.65;;
30169;SDS011;46426;51.368;5.254;2022-09-17T15:00:49;6.57;;;1.60;;
30169;SDS011;46426;51.368;5.254;2022-09-17T15:01:25;5.35;;;1.17;;
30169;SDS011;46426;51.368;5.254;2022-09-17T15:01:57;6.93;;;1.50;;
30169;SDS011;46426;51.368;5.254;2022-09-17T15:02:31;5.55;;;1.60;;
30169;SDS011;46426;51.368;5.254;2022-09-17T15:03:04;6.72;;;1.17;;
30169;SDS011;46426;51.368;5.254;2022-09-17T15:03:37;4.03;;;1.20;;
30169;SDS011;46426;51.368;5.254;2022-09-17T15:04:43;6.32;;;1.58;;
30169;SDS011;46426;51.368;5.254;2022-09-17T15:05:48;5.30;;;1.60;;
30169;SDS011;46426;51.368;5.254;2022-09-17T15:06:22;6.43;;;1.40;;
30169;SDS011;46426;51.368;5.254;2022-09-17T15:07:07;5.80;;;1.48;;
30169;SDS011;46426;51.368;5.254;2022-09-17T15:07:39;5.07;;;1.52;;
30169;SDS011;46426;51.368;5.254;2022-09-17T15:08:17;3.40;;;1.30;;
30169;SDS011;46426;51.368;5.254;2022-09-17T15:08:50;6.30;;;1.40;;
30169;SDS011;46426;51.368;5.254;2022-09-17T15:09:22;6.55;;;1.38;;
30169;SDS011;46426;51.368;5.254;2022-09-17T15:10:04;4.07;;;1.50;;
30169;SDS011;46426;51.368;5.254;2022-09-17T15:10:56;5.93;;;1.60;;
30169;SDS011;46426;51.368;5.254;2022-09-17T15:11:34;5.32;;;2.00;;
30169;SDS011;46426;51.368;5.254;2022-09-17T15:12:07;10.25;;;1.30;;
30169;SDS011;46426;51.368;5.254;2022-09-17T15:12:39;7.78;;;1.67;;
30169;SDS011;46426;51.368;5.254;2022-09-17T15:13:16;4.20;;;1.30;;
30169;SDS011;46426;51.368;5.254;2022-09-17T15:13:49;4.25;;;1.30;;
30169;SDS011;46426;51.368;5.254;2022-09-17T15:14:22;6.35;;;2.00;;
30169;SDS011;46426;51.368;5.254;2022-09-17T15:14:58;4.57;;;1.35;;
30169;SDS011;46426;51.368;5.254;2022-09-17T15:15:30;8.65;;;2.10;;
30169;SDS011;46426;51.368;5.254;2022-09-17T15:16:05;4.25;;;1.80;;
30169;SDS011;46426;51.368;5.254;2022-09-17T15:16:45;4.82;;;1.30;;
30169;SDS011;46426;51.368;5.254;2022-09-17T15:17:18;6.85;;;2.10;;
30169;SDS011;46426;51.368;5.254;2022-09-17T15:17:51;4.75;;;2.15;;
30169;SDS011;46426;51.368;5.254;2022-09-17T15:18:29;6.60;;;1.92;;
30169;SDS011;46426;51.368;5.254;2022-09-17T15:19:02;8.02;;;2.50;;
30169;SDS011;46426;51.368;5.254;2022-09-17T15:19:35;5.20;;;2.33;;
30169;SDS011;46426;51.368;5.254;2022-09-17T15:20:08;6.05;;;2.53;;
30169;SDS011;46426;51.368;5.254;2022-09-17T15:20:44;4.82;;;2.47;;
30169;SDS011;46426;51.368;5.254;2022-09-17T15:21:25;11.50;;;3.58;;
30169;SDS011;46426;51.368;5.254;2022-09-17T15:22:02;7.57;;;2.78;;
30169;SDS011;46426;51.368;5.254;2022-09-17T15:22:36;6.53;;;2.63;;
30169;SDS011;46426;51.368;5.254;2022-09-17T15:23:14;5.80;;;2.35;;
30169;SDS011;46426;51.368;5.254;2022-09-17T15:23:48;9.40;;;3.05;;
30169;SDS011;46426;51.368;5.254;2022-09-17T15:25:26;9.90;;;3.10;;
30169;SDS011;46426;51.368;5.254;2022-09-17T15:26:00;7.40;;;3.33;;
30169;SDS011;46426;51.368;5.254;2022-09-17T15:26:34;9.85;;;3.17;;
30169;SDS011;46426;51.368;5.254;2022-09-17T15:27:42;6.97;;;3.05;;
30169;SDS011;46426;51.368;5.254;2022-09-17T15:28:40;5.53;;;2.67;;
30169;SDS011;46426;51.368;5.254;2022-09-17T15:29:04;6.18;;;2.35;;
30169;SDS011;46426;51.368;5.254;2022-09-17T15:29:37;8.68;;;3.33;;
30169;SDS011;46426;51.368;5.254;2022-09-17T15:30:43;8.48;;;3.50;;
30169;SDS011;46426;51.368;5.254;2022-09-17T15:31:18;11.85;;;4.40;;
30169;SDS011;46426;51.368;5.254;2022-09-17T15:31:51;8.68;;;4.90;;
30169;SDS011;46426;51.368;5.254;2022-09-17T15:32:23;10.90;;;5.22;;
30169;SDS011;46426;51.368;5.254;2022-09-17T15:32:58;9.02;;;4.85;;
30169;SDS011;46426;51.368;5.254;2022-09-17T15:33:32;11.35;;;4.38;;
30169;SDS011;46426;51.368;5.254;2022-09-17T15:34:04;12.80;;;5.28;;
30169;SDS011;46426;51.368;5.254;2022-09-17T15:34:36;6.07;;;3.35;;
30169;SDS011;46426;51.368;5.254;2022-09-17T15:36:00;13.43;;;4.65;;
30169;SDS011;46426;51.368;5.254;2022-09-17T15:36:32;10.82;;;4.55;;
30169;SDS011;46426;51.368;5.254;2022-09-17T15:37:06;11.38;;;4.65;;
30169;SDS011;46426;51.368;5.254;2022-09-17T15:37:46;13.52;;;5.30;;
30169;SDS011;46426;51.368;5.254;2022-09-17T15:38:39;11.82;;;4.50;;
30169;SDS011;46426;51.368;5.254;2022-09-17T15:39:29;10.15;;;5.50;;
30169;SDS011;46426;51.368;5.254;2022-09-17T15:40:04;9.80;;;4.75;;
30169;SDS011;46426;51.368;5.254;2022-09-17T15:40:42;7.43;;;4.05;;
30169;SDS011;46426;51.368;5.254;2022-09-17T15:41:54;7.13;;;4.10;;
30169;SDS011;46426;51.368;5.254;2022-09-17T15:42:28;10.23;;;4.32;;
30169;SDS011;46426;51.368;5.254;2022-09-17T15:43:04;9.73;;;4.55;;
30169;SDS011;46426;51.368;5.254;2022-09-17T15:43:37;8.13;;;4.38;;
30169;SDS011;46426;51.368;5.254;2022-09-17T15:45:47;11.98;;;4.20;;
30169;SDS011;46426;51.368;5.254;2022-09-17T15:46:52;8.90;;;4.03;;
30169;SDS011;46426;51.368;5.254;2022-09-17T15:48:22;10.73;;;4.45;;
30169;SDS011;46426;51.368;5.254;2022-09-17T15:49:25;9.52;;;4.28;;
30169;SDS011;46426;51.368;5.254;2022-09-17T15:50:03;8.75;;;4.40;;
30169;SDS011;46426;51.368;5.254;2022-09-17T15:50:38;11.50;;;4.43;;
30169;SDS011;46426;51.368;5.254;2022-09-17T15:51:27;8.20;;;4.05;;
30169;SDS011;46426;51.368;5.254;2022-09-17T15:52:18;9.75;;;4.10;;
30169;SDS011;46426;51.368;5.254;2022-09-17T15:53:26;8.90;;;4.47;;
30169;SDS011;46426;51.368;5.254;2022-09-17T15:53:51;10.20;;;4.38;;
30169;SDS011;46426;51.368;5.254;2022-09-17T15:54:30;10.13;;;4.43;;
30169;SDS011;46426;51.368;5.254;2022-09-17T15:55:02;11.00;;;4.97;;
30169;SDS011;46426;51.368;5.254;2022-09-17T15:55:36;6.43;;;3.85;;
30169;SDS011;46426;51.368;5.254;2022-09-17T15:56:44;8.25;;;4.50;;
30169;SDS011;46426;51.368;5.254;2022-09-17T15:57:16;6.75;;;3.78;;
30169;SDS011;46426;51.368;5.254;2022-09-17T15:57:48;6.57;;;3.47;;
30169;SDS011;46426;51.368;5.254;2022-09-17T15:58:24;8.18;;;3.95;;
30169;SDS011;46426;51.368;5.254;2022-09-17T15:59:01;8.05;;;3.67;;
30169;SDS011;46426;51.368;5.254;2022-09-17T15:59:35;10.18;;;4.25;;
30169;SDS011;46426;51.368;5.254;2022-09-17T16:00:10;9.50;;;3.97;;
30169;SDS011;46426;51.368;5.254;2022-09-17T16:00:43;8.05;;;3.72;;
30169;SDS011;46426;51.368;5.254;2022-09-17T16:01:49;7.65;;;3.85;;
30169;SDS011;46426;51.368;5.254;2022-09-17T16:02:26;6.78;;;4.15;;
30169;SDS011;46426;51.368;5.254;2022-09-17T16:03:08;9.10;;;3.88;;
30169;SDS011;46426;51.368;5.254;2022-09-17T16:04:41;8.65;;;3.60;;
30169;SDS011;46426;51.368;5.254;2022-09-17T16:05:48;8.45;;;4.00;;
30169;SDS011;46426;51.368;5.254;2022-09-17T16:07:19;9.30;;;4.00;;
30169;SDS011;46426;51.368;5.254;2022-09-17T16:07:51;7.32;;;3.90;;
30169;SDS011;46426;51.368;5.254;2022-09-17T16:08:23;11.18;;;4.07;;
30169;SDS011;46426;51.368;5.254;2022-09-17T16:09:35;8.35;;;3.70;;
30169;SDS011;46426;51.368;5.254;2022-09-17T16:09:56;7.45;;;3.67;;
30169;SDS011;46426;51.368;5.254;2022-09-17T16:10:30;7.45;;;4.10;;
30169;SDS011;46426;51.368;5.254;2022-09-17T16:11:02;8.30;;;3.70;;
30169;SDS011;46426;51.368;5.254;2022-09-17T16:11:34;8.35;;;3.90;;
30169;SDS011;46426;51.368;5.254;2022-09-17T16:12:06;10.57;;;4.28;;
30169;SDS011;46426;51.368;5.254;2022-09-17T16:12:38;8.32;;;4.28;;
30169;SDS011;46426;51.368;5.254;2022-09-17T16:13:11;11.43;;;3.85;;
30169;SDS011;46426;51.368;5.254;2022-09-17T16:13:46;8.30;;;4.03;;
30169;SDS011;46426;51.368;5.254;2022-09-17T16:14:18;12.57;;;4.30;;
30169;SDS011;46426;51.368;5.254;2022-09-17T16:14:51;7.30;;;3.70;;
30169;SDS011;46426;51.368;5.254;2022-09-17T16:15:23;6.78;;;3.70;;
30169;SDS011;46426;51.368;5.254;2022-09-17T16:15:55;7.18;;;3.80;;
30169;SDS011;46426;51.368;5.254;2022-09-17T16:17:07;10.27;;;4.45;;
30169;SDS011;46426;51.368;5.254;2022-09-17T16:17:46;8.52;;;3.80;;
30169;SDS011;46426;51.368;5.254;2022-09-17T16:18:18;9.32;;;4.13;;
30169;SDS011;46426;51.368;5.254;2022-09-17T16:18:50;6.68;;;3.28;;
30169;SDS011;46426;51.368;5.254;2022-09-17T16:19:22;7.47;;;3.80;;
30169;SDS011;46426;51.368;5.254;2022-09-17T16:19:54;8.33;;;3.53;;
30169;SDS011;46426;51.368;5.254;2022-09-17T16:20:26;14.00;;;3.90;;
30169;SDS011;46426;51.368;5.254;2022-09-17T16:20:59;8.90;;;3.80;;
30169;SDS011;46426;51.368;5.254;2022-09-17T16:21:31;6.88;;;3.92;;
30169;SDS011;46426;51.368;5.254;2022-09-17T16:22:03;7.65;;;3.80;;
30169;SDS011;46426;51.368;5.254;2022-09-17T16:22:35;9.13;;;3.88;;
30169;SDS011;46426;51.368;5.254;2022-09-17T16:23:07;9.18;;;3.80;;
30169;SDS011;46426;51.368;5.254;2022-09-17T16:23:39;7.97;;;3.95;;
30169;SDS011;46426;51.368;5.254;2022-09-17T16:24:11;8.65;;;3.45;;
30169;SDS011;46426;51.368;5.254;2022-09-17T16:24:43;7.63;;;3.92;;
30169;SDS011;46426;51.368;5.254;2022-09-17T16:25:16;7.43;;;3.67;;
30169;SDS011;46426;51.368;5.254;2022-09-17T16:25:48;6.95;;;3.92;;
30169;SDS011;46426;51.368;5.254;2022-09-17T16:26:21;8.90;;;4.38;;
30169;SDS011;46426;51.368;5.254;2022-09-17T16:26:54;8.45;;;3.97;;
30169;SDS011;46426;51.368;5.254;2022-09-17T16:27:27;11.15;;;4.32;;
30169;SDS011;46426;51.368;5.254;2022-09-17T16:28:32;7.65;;;3.97;;
30169;SDS011;46426;51.368;5.254;2022-09-17T16:29:06;7.20;;;3.63;;
30169;SDS011;46426;51.368;5.254;2022-09-17T16:29:41;6.70;;;3.90;;
30169;SDS011;46426;51.368;5.254;2022-09-17T16:30:17;8.82;;;4.07;;
30169;SDS011;46426;51.368;5.254;2022-09-17T16:30:49;6.68;;;3.63;;
30169;SDS011;46426;51.368;5.254;2022-09-17T16:31:21;7.75;;;4.03;;
30169;SDS011;46426;51.368;5.254;2022-09-17T16:31:54;7.28;;;3.58;;
30169;SDS011;46426;51.368;5.254;2022-09-17T16:32:26;5.70;;;3.63;;
30169;SDS011;46426;51.368;5.254;2022-09-17T16:32:58;8.82;;;3.95;;
30169;SDS011;46426;51.368;5.254;2022-09-17T16:33:34;10.25;;;4.15;;
30169;SDS011;46426;51.368;5.254;2022-09-17T16:34:06;7.68;;;3.88;;
30169;SDS011;46426;51.368;5.254;2022-09-17T16:34:38;10.93;;;3.95;;
30169;SDS011;46426;51.368;5.254;2022-09-17T16:35:11;8.38;;;4.07;;
30169;SDS011;46426;51.368;5.254;2022-09-17T16:35:48;6.55;;;3.50;;
30169;SDS011;46426;51.368;5.254;2022-09-17T16:36:20;10.15;;;4.18;;
30169;SDS011;46426;51.368;5.254;2022-09-17T16:36:52;6.60;;;3.30;;
30169;SDS011;46426;51.368;5.254;2022-09-17T16:37:24;7.57;;;3.63;;
30169;SDS011;46426;51.368;5.254;2022-09-17T16:37:56;7.20;;;3.65;;
30169;SDS011;46426;51.368;5.254;2022-09-17T16:38:29;7.25;;;3.70;;
30169;SDS011;46426;51.368;5.254;2022-09-17T16:39:01;6.60;;;3.30;;
30169;SDS011;46426;51.368;5.254;2022-09-17T16:39:33;9.23;;;3.45;;
30169;SDS011;46426;51.368;5.254;2022-09-17T16:40:05;6.80;;;3.40;;
30169;SDS011;46426;51.368;5.254;2022-09-17T16:40:39;6.43;;;3.70;;
30169;SDS011;46426;51.368;5.254;2022-09-17T16:41:11;6.97;;;2.97;;
30169;SDS011;46426;51.368;5.254;2022-09-17T16:41:44;7.45;;;3.40;;
30169;SDS011;46426;51.368;5.254;2022-09-17T16:42:16;6.53;;;3.22;;
30169;SDS011;46426;51.368;5.254;2022-09-17T16:42:48;7.45;;;3.65;;
30169;SDS011;46426;51.368;5.254;2022-09-17T16:43:20;7.68;;;4.10;;
30169;SDS011;46426;51.368;5.254;2022-09-17T16:43:52;8.75;;;3.60;;
30169;SDS011;46426;51.368;5.254;2022-09-17T16:44:24;6.32;;;3.50;;
30169;SDS011;46426;51.368;5.254;2022-09-17T16:44:56;8.52;;;3.60;;
30169;SDS011;46426;51.368;5.254;2022-09-17T16:45:30;6.90;;;3.30;;
30169;SDS011;46426;51.368;5.254;2022-09-17T16:46:04;6.97;;;3.50;;
30169;SDS011;46426;51.368;5.254;2022-09-17T16:46:36;7.25;;;3.47;;
30169;SDS011;46426;51.368;5.254;2022-09-17T16:47:08;8.40;;;4.00;;
30169;SDS011;46426;51.368;5.254;2022-09-17T16:47:40;5.75;;;3.00;;
30169;SDS011;46426;51.368;5.254;2022-09-17T16:48:13;6.18;;;3.17;;
30169;SDS011;46426;51.368;5.254;2022-09-17T16:48:48;7.20;;;3.25;;
30169;SDS011;46426;51.368;5.254;2022-09-17T16:49:20;8.18;;;3.65;;
30169;SDS011;46426;51.368;5.254;2022-09-17T16:49:52;7.55;;;3.45;;
30169;SDS011;46426;51.368;5.254;2022-09-17T16:50:24;7.43;;;2.80;;
30169;SDS011;46426;51.368;5.254;2022-09-17T16:50:57;6.15;;;3.00;;
30169;SDS011;46426;51.368;5.254;2022-09-17T16:51:29;7.82;;;3.50;;
30169;SDS011;46426;51.368;5.254;2022-09-17T16:52:01;9.38;;;3.60;;
30169;SDS011;46426;51.368;5.254;2022-09-17T16:52:33;8.35;;;4.00;;
30169;SDS011;46426;51.368;5.254;2022-09-17T16:53:05;9.48;;;4.28;;
30169;SDS011;46426;51.368;5.254;2022-09-17T16:53:38;8.25;;;4.18;;
30169;SDS011;46426;51.368;5.254;2022-09-17T16:54:10;10.20;;;4.50;;
30169;SDS011;46426;51.368;5.254;2022-09-17T16:54:43;8.73;;;3.88;;
30169;SDS011;46426;51.368;5.254;2022-09-17T16:55:16;8.93;;;4.40;;
30169;SDS011;46426;51.368;5.254;2022-09-17T16:55:48;8.35;;;4.20;;